createdAt,value
2018-04-14T00:01:11.249Z,90.60
2018-04-14T00:03:38.728Z,90.70
2018-04-14T00:06:06.212Z,90.70
2018-04-14T00:08:34.440Z,91.40
2018-04-14T00:11:01.901Z,91.10
2018-04-14T00:13:29.366Z,91.10
2018-04-14T00:15:56.833Z,91.00
2018-04-14T00:18:24.285Z,91.10
2018-04-14T00:20:51.740Z,91.00
2018-04-14T00:23:19.200Z,90.90
2018-04-14T00:25:46.667Z,91.00
2018-04-14T00:28:14.134Z,90.90
2018-04-14T00:30:41.597Z,91.00
2018-04-14T00:33:09.840Z,91.10
2018-04-14T00:35:37.304Z,91.10
2018-04-14T00:38:04.755Z,91.00
2018-04-14T00:40:32.220Z,91.00
2018-04-14T00:42:59.688Z,90.90
2018-04-14T00:45:27.167Z,91.10
2018-04-14T00:47:55.402Z,91.00
2018-04-14T00:50:22.879Z,91.00
2018-04-14T00:52:50.345Z,91.00
2018-04-14T00:55:20.340Z,91.00
2018-04-14T00:57:47.826Z,91.00
2018-04-14T01:00:16.084Z,91.20
2018-04-14T01:02:43.573Z,91.10
2018-04-14T01:05:11.851Z,91.00
2018-04-14T01:07:39.334Z,91.30
2018-04-14T01:10:06.834Z,91.00
2018-04-14T01:12:34.338Z,91.00
2018-04-14T01:15:01.815Z,91.10
2018-04-14T01:17:29.304Z,91.10
2018-04-14T01:19:56.794Z,91.10
2018-04-14T01:22:25.046Z,91.10
2018-04-14T01:24:52.522Z,91.00
2018-04-14T01:27:21.029Z,91.30
2018-04-14T01:29:48.504Z,91.20
2018-04-14T01:32:15.981Z,91.20
2018-04-14T01:34:43.470Z,91.40
2018-04-14T01:37:10.950Z,91.40
2018-04-14T01:39:38.437Z,91.10
2018-04-14T01:42:05.918Z,91.00
2018-04-14T01:44:33.399Z,91.20
2018-04-14T01:47:01.653Z,91.10
2018-04-14T01:49:29.134Z,90.90
2018-04-14T01:51:57.414Z,91.00
2018-04-14T01:54:25.666Z,90.90
2018-04-14T01:56:53.918Z,90.90
2018-04-14T01:59:21.649Z,91.20
2018-04-14T02:01:49.146Z,91.20
2018-04-14T02:04:16.639Z,91.00
2018-04-14T02:06:44.899Z,91.40
2018-04-14T02:09:12.393Z,91.40
2018-04-14T02:11:39.886Z,91.40
2018-04-14T02:14:07.355Z,91.60
2018-04-14T02:16:34.829Z,91.70
2018-04-14T02:19:02.304Z,91.60
2018-04-14T02:21:29.778Z,91.70
2018-04-14T02:23:57.276Z,91.90
2018-04-14T02:26:24.742Z,91.80
2018-04-14T02:28:52.226Z,91.60
2018-04-14T02:31:19.695Z,91.70
2018-04-14T02:33:47.941Z,91.70
2018-04-14T02:36:15.410Z,91.70
2018-04-14T02:38:42.877Z,91.70
2018-04-14T02:41:10.350Z,91.60
2018-04-14T02:43:38.606Z,91.60
2018-04-14T02:46:06.073Z,91.50
2018-04-14T02:48:34.320Z,91.40
2018-04-14T02:51:01.780Z,91.40
2018-04-14T02:53:29.271Z,91.30
2018-04-14T02:58:36.656Z,91.80
2018-04-14T03:01:04.150Z,91.40
2018-04-14T03:03:31.609Z,91.40
2018-04-14T03:05:59.087Z,91.30
2018-04-14T03:08:26.539Z,91.30
2018-04-14T03:10:54.016Z,91.30
2018-04-14T03:13:21.497Z,91.30
2018-04-14T03:15:48.968Z,91.40
2018-04-14T03:18:16.431Z,91.60
2018-04-14T03:20:44.693Z,91.60
2018-04-14T03:23:12.162Z,91.60
2018-04-14T03:25:39.628Z,91.60
2018-04-14T03:28:07.849Z,91.40
2018-04-14T03:30:35.308Z,91.40
2018-04-14T03:33:02.761Z,91.40
2018-04-14T03:35:30.210Z,91.30
2018-04-14T03:37:57.672Z,91.10
2018-04-14T03:40:25.141Z,91.10
2018-04-14T03:42:52.654Z,91.10
2018-04-14T03:45:20.888Z,91.00
2018-04-14T03:47:48.345Z,91.00
2018-04-14T03:50:15.822Z,91.10
2018-04-14T03:52:43.309Z,91.10
2018-04-14T03:55:10.788Z,91.20
2018-04-14T03:57:38.290Z,91.30
2018-04-14T04:00:05.749Z,91.20
2018-04-14T04:02:33.214Z,91.10
2018-04-14T04:05:00.694Z,91.30
2018-04-14T04:07:28.917Z,91.60
2018-04-14T04:09:56.386Z,91.60
2018-04-14T04:12:23.836Z,91.60
2018-04-14T04:14:51.290Z,91.90
2018-04-14T04:17:18.744Z,91.40
2018-04-14T04:19:58.106Z,91.40
2018-04-14T04:37:16.511Z,91.40
2018-04-14T04:39:43.973Z,91.60
2018-04-14T04:42:11.428Z,91.50
2018-04-14T04:44:38.893Z,91.40
2018-04-14T04:47:06.348Z,91.30
2018-04-14T04:49:33.800Z,91.30
2018-04-14T04:52:01.253Z,91.40
2018-04-14T04:54:28.707Z,91.40
2018-04-14T04:56:56.168Z,91.40
2018-04-14T04:59:23.633Z,91.30
2018-04-14T05:01:51.076Z,91.30
2018-04-14T05:04:19.310Z,91.20
2018-04-14T05:06:47.548Z,91.20
2018-04-14T05:09:15.003Z,91.20
2018-04-14T05:11:42.457Z,91.30
2018-04-14T05:14:09.926Z,91.20
2018-04-14T05:16:37.384Z,91.00
2018-04-14T05:19:04.853Z,91.20
2018-04-14T05:21:32.318Z,91.10
2018-04-14T05:23:59.782Z,91.20
2018-04-14T05:26:27.237Z,91.00
2018-04-14T05:28:54.696Z,91.10
2018-04-14T05:31:22.931Z,91.30
2018-04-14T05:33:50.379Z,90.90
2018-04-14T05:36:18.672Z,91.10
2018-04-14T05:38:46.146Z,90.70
2018-04-14T05:41:13.592Z,90.70
2018-04-14T05:43:41.052Z,90.70
2018-04-14T05:46:08.517Z,90.70
2018-04-14T05:48:35.966Z,90.70
2018-04-14T05:51:03.452Z,90.40
2018-04-14T05:53:31.691Z,90.30
2018-04-14T05:55:59.151Z,90.30
2018-04-14T05:58:26.616Z,90.00
2018-04-14T06:00:54.086Z,90.00
2018-04-14T06:03:21.531Z,89.10
2018-04-14T06:05:49.004Z,89.50
2018-04-14T06:08:17.246Z,89.20
2018-04-14T06:10:44.698Z,89.20
2018-04-14T06:13:12.177Z,89.10
2018-04-14T06:15:39.643Z,88.00
2018-04-14T06:18:07.097Z,87.70
2018-04-14T06:20:34.558Z,86.60
2018-04-14T06:23:02.040Z,86.20
2018-04-14T06:25:30.336Z,86.90
2018-04-14T06:27:57.809Z,86.20
2018-04-14T06:30:25.268Z,86.10
2018-04-14T06:32:52.738Z,84.60
2018-04-14T06:35:20.254Z,84.10
2018-04-14T06:37:47.682Z,83.70
2018-04-14T06:40:15.154Z,83.10
2018-04-14T06:42:43.377Z,82.10
2018-04-14T06:45:10.853Z,82.00
2018-04-14T06:47:38.321Z,81.30
2018-04-14T06:50:05.805Z,81.50
2018-04-14T06:52:34.038Z,80.20
2018-04-14T06:55:01.509Z,80.20
2018-04-14T06:57:28.971Z,80.50
2018-04-14T06:59:56.442Z,80.10
2018-04-14T07:02:23.897Z,79.10
2018-04-14T07:04:51.396Z,79.00
2018-04-14T07:07:19.595Z,77.70
2018-04-14T07:09:47.060Z,78.30
2018-04-14T07:12:14.525Z,77.30
2018-04-14T07:14:41.992Z,76.90
2018-04-14T07:17:09.461Z,75.80
2018-04-14T07:19:36.921Z,75.60
2018-04-14T07:22:05.151Z,73.70
2018-04-14T07:24:32.630Z,73.60
2018-04-14T07:27:00.109Z,73.00
2018-04-14T07:29:27.568Z,73.20
2018-04-14T07:31:55.804Z,74.00
2018-04-14T07:34:23.276Z,72.90
2018-04-14T07:36:50.801Z,71.10
2018-04-14T07:39:18.280Z,71.20
2018-04-14T07:41:45.736Z,71.20
2018-04-14T07:44:14.525Z,70.40
2018-04-14T07:46:42.004Z,68.60
2018-04-14T07:49:09.476Z,69.00
2018-04-14T07:51:37.726Z,66.60
2018-04-14T07:54:07.961Z,66.50
2018-04-14T07:56:35.425Z,65.30
2018-04-14T07:59:02.880Z,66.10
2018-04-14T08:01:30.345Z,66.30
2018-04-14T08:03:57.812Z,67.00
2018-04-14T08:06:25.272Z,66.20
2018-04-14T08:08:53.505Z,64.60
2018-04-14T08:11:20.973Z,64.40
2018-04-14T08:13:48.445Z,64.80
2018-04-14T08:16:15.917Z,65.30
2018-04-14T08:18:44.153Z,63.00
2018-04-14T08:21:11.616Z,63.00
2018-04-14T08:23:39.081Z,62.50
2018-04-14T08:26:06.546Z,62.40
2018-04-14T08:28:33.996Z,61.30
2018-04-14T08:31:01.452Z,61.10
2018-04-14T08:33:28.935Z,60.90
2018-04-14T08:35:56.409Z,58.90
2018-04-14T08:38:23.903Z,58.60
2018-04-14T08:40:51.382Z,58.00
2018-04-14T08:43:18.837Z,56.80
2018-04-14T08:45:46.302Z,56.30
2018-04-14T08:48:13.757Z,56.50
2018-04-14T08:50:41.224Z,59.90
2018-04-14T08:53:08.720Z,57.70
2018-04-14T08:55:36.191Z,56.10
2018-04-14T08:58:03.649Z,56.00
2018-04-14T09:00:31.202Z,57.80
2018-04-14T09:02:58.661Z,58.50
2018-04-14T09:05:26.129Z,56.20
2018-04-14T09:07:53.605Z,56.30
2018-04-14T09:10:21.069Z,56.70
2018-04-14T09:12:48.532Z,55.70
2018-04-14T09:15:16.000Z,55.30
2018-04-14T09:17:44.228Z,56.40
2018-04-14T09:20:11.689Z,56.40
2018-04-14T09:22:39.149Z,56.90
2018-04-14T09:25:06.624Z,55.60
2018-04-14T09:27:34.101Z,57.40
2018-04-14T09:30:01.565Z,57.70
2018-04-14T09:32:29.805Z,56.00
2018-04-14T09:34:57.274Z,55.90
2018-04-14T09:37:24.751Z,55.20
2018-04-14T09:39:52.221Z,55.20
2018-04-14T09:42:20.776Z,55.20
2018-04-14T09:44:48.248Z,55.00
2018-04-14T09:47:15.713Z,55.20
2018-04-14T09:49:43.948Z,55.30
2018-04-14T09:52:11.419Z,55.20
2018-04-14T09:54:38.890Z,54.70
2018-04-14T09:57:06.360Z,55.20
2018-04-14T09:59:33.817Z,54.50
2018-04-14T10:02:02.052Z,55.90
2018-04-14T10:04:29.504Z,55.10
2018-04-14T10:06:57.738Z,55.10
2018-04-14T10:09:25.977Z,55.40
2018-04-14T10:11:53.436Z,55.40
2018-04-14T10:14:20.900Z,54.00
2018-04-14T10:16:48.373Z,53.00
2018-04-14T10:19:16.609Z,54.00
2018-04-14T10:21:44.074Z,53.90
2018-04-14T10:24:11.548Z,54.00
2018-04-14T10:26:39.028Z,53.90
2018-04-14T10:29:06.514Z,54.00
2018-04-14T10:31:33.984Z,52.60
2018-04-14T10:34:01.456Z,52.60
2018-04-14T10:36:28.921Z,53.30
2018-04-14T10:38:56.392Z,52.50
2018-04-14T10:41:23.856Z,51.80
2018-04-14T10:43:51.364Z,51.70
2018-04-14T10:46:18.812Z,51.40
2018-04-14T10:48:46.269Z,51.70
2018-04-14T10:51:13.745Z,51.60
2018-04-14T10:53:41.204Z,49.20
2018-04-14T10:56:08.668Z,49.10
2018-04-14T10:58:36.134Z,49.30
2018-04-14T11:01:03.585Z,49.60
2018-04-14T11:03:31.055Z,48.60
2018-04-14T11:05:58.534Z,48.30
2018-04-14T11:08:25.997Z,48.60
2018-04-14T11:10:54.233Z,48.00
2018-04-14T11:13:21.692Z,48.00
2018-04-14T11:15:49.166Z,49.00
2018-04-14T11:18:16.630Z,49.60
2018-04-14T11:20:44.096Z,47.40
2018-04-14T11:23:12.325Z,47.80
2018-04-14T11:25:39.906Z,47.80
2018-04-14T11:28:07.431Z,48.90
2018-04-14T11:30:34.886Z,47.80
2018-04-14T11:33:02.356Z,47.60
2018-04-14T11:35:29.813Z,46.60
2018-04-14T11:37:57.276Z,46.80
2018-04-14T11:40:24.745Z,47.20
2018-04-14T11:42:52.217Z,46.80
2018-04-14T11:45:19.684Z,46.80
2018-04-14T11:47:47.141Z,46.30
2018-04-14T11:50:14.609Z,45.70
2018-04-14T11:52:42.076Z,45.60
2018-04-14T11:55:09.585Z,45.70
2018-04-14T11:57:37.040Z,45.30
2018-04-14T12:00:04.512Z,44.50
2018-04-14T12:02:31.993Z,42.10
2018-04-14T12:04:59.456Z,42.50
2018-04-14T12:07:27.685Z,40.50
2018-04-14T12:09:55.225Z,40.30
2018-04-14T12:12:22.684Z,39.80
2018-04-14T12:14:50.153Z,38.40
2018-04-14T12:17:17.608Z,39.50
2018-04-14T12:19:45.106Z,39.50
2018-04-14T12:22:12.561Z,36.60
2018-04-14T12:24:40.029Z,37.00
2018-04-14T12:27:07.499Z,35.80
2018-04-14T12:29:34.975Z,35.90
2018-04-14T12:32:02.440Z,34.60
2018-04-14T12:34:29.903Z,35.90
2018-04-14T12:36:57.372Z,36.30
2018-04-14T12:39:24.824Z,37.20
2018-04-14T12:41:52.342Z,36.20
2018-04-14T12:44:19.756Z,36.70
2018-04-14T12:46:47.221Z,36.50
2018-04-14T12:49:14.682Z,36.30
2018-04-14T12:51:42.153Z,35.20
2018-04-14T12:54:09.606Z,36.40
2018-04-14T12:56:37.077Z,35.90
2018-04-14T12:59:04.534Z,35.30
2018-04-14T13:01:32.785Z,36.60
2018-04-14T13:04:00.265Z,36.60
2018-04-14T13:06:28.505Z,38.20
2018-04-14T13:08:55.971Z,38.20
2018-04-14T13:11:23.436Z,40.20
2018-04-14T13:13:50.901Z,39.30
2018-04-14T13:16:18.364Z,39.20
2018-04-14T13:18:45.827Z,39.10
2018-04-14T13:21:13.297Z,38.80
2018-04-14T13:23:40.753Z,38.60
2018-04-14T13:26:09.009Z,38.80
2018-04-14T13:28:36.465Z,38.70
2018-04-14T13:31:03.932Z,35.70
2018-04-14T13:33:31.436Z,35.60
2018-04-14T13:35:58.920Z,36.60
2018-04-14T13:38:26.375Z,38.20
2018-04-14T13:40:53.842Z,38.10
2018-04-14T13:43:21.529Z,36.20
2018-04-14T13:45:49.794Z,37.20
2018-04-14T13:48:17.281Z,37.20
2018-04-14T13:50:44.744Z,35.20
2018-04-14T13:53:12.207Z,33.20
2018-04-14T13:55:39.676Z,36.50
2018-04-14T13:58:07.133Z,36.00
2018-04-14T14:00:34.601Z,36.50
2018-04-14T14:03:02.064Z,35.90
2018-04-14T14:05:29.533Z,37.00
2018-04-14T14:07:56.992Z,37.50
2018-04-14T14:10:24.490Z,38.10
2018-04-14T14:12:51.972Z,38.50
2018-04-14T14:15:19.436Z,38.00
2018-04-14T14:17:46.899Z,37.70
2018-04-14T14:20:14.361Z,38.30
2018-04-14T14:22:41.829Z,38.50
2018-04-14T14:25:09.291Z,38.70
2018-04-14T14:27:36.748Z,37.70
2018-04-14T14:30:04.221Z,38.60
2018-04-14T14:32:31.695Z,38.70
2018-04-14T14:34:59.162Z,37.60
2018-04-14T14:37:27.380Z,38.60
2018-04-14T14:39:55.681Z,38.60
2018-04-14T14:42:23.937Z,39.20
2018-04-14T14:44:51.398Z,38.70
2018-04-14T14:47:18.873Z,38.10
2018-04-14T14:49:46.340Z,37.40
2018-04-14T14:52:13.804Z,38.70
2018-04-14T14:54:41.264Z,38.40
2018-04-14T14:57:08.758Z,39.00
2018-04-14T14:59:36.220Z,38.10
2018-04-14T15:02:03.700Z,37.90
2018-04-14T15:04:31.167Z,37.80
2018-04-14T15:06:58.636Z,37.70
2018-04-14T15:09:26.102Z,37.70
2018-04-14T15:11:53.560Z,37.60
2018-04-14T15:14:21.797Z,37.70
2018-04-14T15:16:49.274Z,37.60
2018-04-14T15:19:16.728Z,39.10
2018-04-14T15:21:44.187Z,37.60
2018-04-14T15:24:11.644Z,38.00
2018-04-14T15:26:39.117Z,38.30
2018-04-14T15:29:06.581Z,39.50
2018-04-14T15:31:34.044Z,39.30
2018-04-14T15:34:02.293Z,40.50
2018-04-14T15:36:29.788Z,40.50
2018-04-14T15:39:00.043Z,41.10
2018-04-14T15:41:27.501Z,42.10
2018-04-14T15:43:54.976Z,42.60
2018-04-14T15:46:22.441Z,42.60
2018-04-14T15:48:49.926Z,41.50
2018-04-14T15:51:18.156Z,42.40
2018-04-14T15:53:45.625Z,42.30
2018-04-14T15:56:13.308Z,42.10
2018-04-14T15:58:40.934Z,41.50
2018-04-14T16:01:08.445Z,41.30
2018-04-14T16:03:44.626Z,42.40
2018-04-14T16:06:04.145Z,42.30
2018-04-14T16:08:31.597Z,41.80
2018-04-14T16:10:59.057Z,42.70
2018-04-14T16:13:26.516Z,42.90
2018-04-14T16:15:53.979Z,43.70
2018-04-14T16:18:21.442Z,43.90
2018-04-14T16:20:48.917Z,43.30
2018-04-14T16:23:17.203Z,44.50
2018-04-14T16:25:45.430Z,45.20
2018-04-14T16:28:12.893Z,44.50
2018-04-14T16:30:40.348Z,43.90
2018-04-14T16:33:07.828Z,42.90
2018-04-14T16:35:35.297Z,42.40
2018-04-14T16:38:02.769Z,42.50
2018-04-14T16:40:30.989Z,43.00
2018-04-14T16:42:58.455Z,43.00
2018-04-14T16:45:25.916Z,43.40
2018-04-14T16:47:53.389Z,43.90
2018-04-14T16:50:20.852Z,44.20
2018-04-14T16:52:49.086Z,45.90
2018-04-14T16:55:17.365Z,45.50
2018-04-14T16:57:44.828Z,45.60
2018-04-14T17:00:12.284Z,46.10
2018-04-14T17:02:39.744Z,46.10
2018-04-14T17:05:07.218Z,46.20
2018-04-14T17:07:34.680Z,46.20
2018-04-14T17:10:02.138Z,46.60
2018-04-14T17:12:29.613Z,47.00
2018-04-14T17:14:57.836Z,48.00
2018-04-14T17:17:25.307Z,47.90
2018-04-14T17:19:52.985Z,48.60
2018-04-14T17:22:20.442Z,49.20
2018-04-14T17:24:47.910Z,49.70
2018-04-14T17:27:15.374Z,50.50
2018-04-14T17:29:42.840Z,50.40
2018-04-14T17:32:11.059Z,51.30
2018-04-14T17:34:38.530Z,51.30
2018-04-14T17:37:05.996Z,51.60
2018-04-14T17:39:33.684Z,52.00
2018-04-14T17:42:01.153Z,52.20
2018-04-14T17:44:29.393Z,52.80
2018-04-14T17:46:56.867Z,52.70
2018-04-14T17:49:24.330Z,52.90
2018-04-14T17:51:52.568Z,53.50
2018-04-14T17:54:20.035Z,53.40
2018-04-14T17:56:47.493Z,53.60
2018-04-14T17:59:14.964Z,53.90
2018-04-14T18:01:42.433Z,54.10
2018-04-14T18:04:09.895Z,54.40
2018-04-14T18:06:38.132Z,55.00
2018-04-14T18:09:05.593Z,54.90
2018-04-14T18:11:33.055Z,55.20
2018-04-14T18:14:00.516Z,55.30
2018-04-14T18:16:27.989Z,55.70
2018-04-14T18:18:55.445Z,55.70
2018-04-14T18:21:22.911Z,55.90
2018-04-14T18:23:50.382Z,56.20
2018-04-14T18:26:18.605Z,56.20
2018-04-14T18:28:46.070Z,56.20
2018-04-14T18:31:13.543Z,56.30
2018-04-14T18:33:41.013Z,56.60
2018-04-14T18:36:09.249Z,56.90
2018-04-14T18:38:37.013Z,56.80
2018-04-14T18:41:04.473Z,56.90
2018-04-14T18:43:31.937Z,57.20
2018-04-14T18:45:59.397Z,57.10
2018-04-14T18:48:26.877Z,57.40
2018-04-14T18:50:54.332Z,57.50
2018-04-14T18:53:21.792Z,57.80
2018-04-14T18:55:49.249Z,57.80
2018-04-14T18:58:17.500Z,57.90
2018-04-14T19:00:44.960Z,57.80
2018-04-14T19:03:12.426Z,58.20
2018-04-14T19:05:39.889Z,58.30
2018-04-14T19:08:07.356Z,58.40
2018-04-14T19:10:34.816Z,58.50
2018-04-14T19:13:02.281Z,58.70
2018-04-14T19:15:30.509Z,59.00
2018-04-14T19:17:58.032Z,59.00
2018-04-14T19:20:25.454Z,58.80
2018-04-14T19:22:52.912Z,58.90
2018-04-14T19:25:20.385Z,58.90
2018-04-14T19:27:48.616Z,59.70
2018-04-14T19:30:16.072Z,59.10
2018-04-14T19:32:43.587Z,59.10
2018-04-14T19:35:11.810Z,59.10
2018-04-14T19:37:39.291Z,59.10
2018-04-14T19:40:06.746Z,59.40
2018-04-14T19:42:35.001Z,60.10
2018-04-14T19:45:02.464Z,60.00
2018-04-14T19:47:29.926Z,60.20
2018-04-14T19:49:57.419Z,60.70
2018-04-14T19:52:25.648Z,61.10
2018-04-14T19:54:53.109Z,61.00
2018-04-14T19:57:20.590Z,60.50
2018-04-14T19:59:48.111Z,60.90
2018-04-14T20:02:16.297Z,61.40
2018-04-14T20:04:43.763Z,61.30
2018-04-14T20:07:11.224Z,61.20
2018-04-14T20:09:38.689Z,61.50
2018-04-14T20:12:06.171Z,61.60
2018-04-14T20:14:34.405Z,61.60
2018-04-14T20:17:01.882Z,61.60
2018-04-14T20:19:29.335Z,61.90
2018-04-14T20:21:56.830Z,62.10
2018-04-14T20:24:25.045Z,62.80
2018-04-14T20:26:52.518Z,62.70
2018-04-14T20:29:19.988Z,63.00
2018-04-14T20:31:47.444Z,63.40
2018-04-14T20:34:14.900Z,63.30
2018-04-14T20:36:42.365Z,63.50
2018-04-14T20:39:09.843Z,63.60
2018-04-14T20:41:38.068Z,63.40
2018-04-14T20:44:05.528Z,63.40
2018-04-14T20:46:32.988Z,63.70
2018-04-14T20:49:00.456Z,63.40
2018-04-14T20:51:27.913Z,63.90
2018-04-14T20:53:55.389Z,64.00
2018-04-14T20:56:22.854Z,64.30
2018-04-14T20:58:51.093Z,65.40
2018-04-14T21:01:18.556Z,65.30
2018-04-14T21:03:46.027Z,65.10
2018-04-14T21:06:14.265Z,65.50
2018-04-14T21:08:41.728Z,65.50
2018-04-14T21:11:09.418Z,65.60
2018-04-14T21:13:36.894Z,65.50
2018-04-14T21:16:05.117Z,66.10
2018-04-14T21:18:32.595Z,66.00
2018-04-14T21:21:00.052Z,66.40
2018-04-14T21:23:27.513Z,66.90
2018-04-14T21:25:54.984Z,67.10
2018-04-14T21:28:22.444Z,67.30
2018-04-14T21:30:49.908Z,67.30
2018-04-14T21:33:17.368Z,67.60
2018-04-14T21:35:45.678Z,68.10
2018-04-14T21:38:13.138Z,67.20
2018-04-14T21:40:40.606Z,67.70
2018-04-14T21:43:08.073Z,68.30
2018-04-14T21:45:35.541Z,68.50
2018-04-14T21:48:03.001Z,68.80
2018-04-14T21:50:30.465Z,69.30
2018-04-14T21:52:57.947Z,69.20
2018-04-14T21:55:26.188Z,69.40
2018-04-14T21:57:54.441Z,69.40
2018-04-14T22:00:21.953Z,69.40
2018-04-14T22:02:50.188Z,70.20
2018-04-14T22:05:17.676Z,70.00
2018-04-14T22:07:45.141Z,70.60
2018-04-14T22:10:12.593Z,70.10
2018-04-14T22:12:40.071Z,70.10
2018-04-14T22:15:08.297Z,70.20
2018-04-14T22:17:38.703Z,70.10
2018-04-14T22:20:09.136Z,70.80
2018-04-14T22:22:40.317Z,70.60
2018-04-14T22:25:13.301Z,70.20
2018-04-14T22:27:40.806Z,71.00
2018-04-14T22:30:08.285Z,70.50
2018-04-14T22:32:35.740Z,70.60
2018-04-14T22:35:03.213Z,70.50
2018-04-14T22:37:30.676Z,70.50
2018-04-14T22:39:58.147Z,70.40
2018-04-14T22:42:25.601Z,70.30
2018-04-14T22:44:53.096Z,70.90
2018-04-14T22:47:20.570Z,71.00
2018-04-14T22:49:48.024Z,70.30
2018-04-14T22:52:15.493Z,70.40
2018-04-14T22:54:43.618Z,70.30
2018-04-14T22:57:11.866Z,71.40
2018-04-14T22:59:39.334Z,71.40
2018-04-14T23:02:06.813Z,71.30
2018-04-14T23:04:34.276Z,71.80
2018-04-14T23:07:02.523Z,71.40
2018-04-14T23:09:29.991Z,71.40
2018-04-14T23:11:57.449Z,71.00
2018-04-14T23:14:24.912Z,71.20
2018-04-14T23:16:52.376Z,71.50
2018-04-14T23:19:20.645Z,72.10
2018-04-14T23:21:48.085Z,72.10
2018-04-14T23:24:15.549Z,72.80
2018-04-14T23:26:43.020Z,73.00
2018-04-14T23:29:10.477Z,73.10
2018-04-14T23:31:37.947Z,73.00
2018-04-14T23:34:06.178Z,73.40
2018-04-14T23:36:33.630Z,73.30
2018-04-14T23:39:01.093Z,74.10
2018-04-14T23:41:28.553Z,74.30
2018-04-14T23:43:56.012Z,74.80
2018-04-14T23:46:23.486Z,74.60
2018-04-14T23:48:50.941Z,74.20
2018-04-14T23:51:18.412Z,74.20
2018-04-14T23:53:46.637Z,75.10
2018-04-14T23:56:14.112Z,75.10
2018-04-14T23:58:41.572Z,74.90
